sensor_id;sensor_type;location;lat;lon;timestamp;pressure;altitude;pressure_sealevel;temperature;humidity
78206;BME280;67480;48.920;12.880;2023-07-20T00:00:25;96708.16;;;21.55;42.34
78206;BME280;67480;48.920;12.880;2023-07-20T00:02:50;96712.44;;;21.63;41.68
78206;BME280;67480;48.920;12.880;2023-07-20T00:05:16;96723.81;;;21.54;42.29
78206;BME280;67480;48.920;12.880;2023-07-20T00:07:47;96728.50;;;21.50;42.50
78206;BME280;67480;48.920;12.880;2023-07-20T00:10:12;96718.34;;;21.40;42.74
78206;BME280;67480;48.920;12.880;2023-07-20T00:12:37;96720.22;;;21.18;43.21
78206;BME280;67480;48.920;12.880;2023-07-20T00:15:03;96716.78;;;21.42;43.35
78206;BME280;67480;48.920;12.880;2023-07-20T00:17:29;96728.88;;;21.34;43.33
78206;BME280;67480;48.920;12.880;2023-07-20T00:19:54;96719.47;;;21.32;42.96
78206;BME280;67480;48.920;12.880;2023-07-20T00:22:19;96715.19;;;21.34;43.15
78206;BME280;67480;48.920;12.880;2023-07-20T00:24:45;96728.50;;;21.50;42.78
78206;BME280;67480;48.920;12.880;2023-07-20T00:27:10;96723.81;;;21.43;42.93
78206;BME280;67480;48.920;12.880;2023-07-20T00:29:36;96728.47;;;21.36;43.26
78206;BME280;67480;48.920;12.880;2023-07-20T00:32:01;96737.09;;;21.38;44.77
78206;BME280;67480;48.920;12.880;2023-07-20T00:34:27;96738.28;;;21.37;43.82
78206;BME280;67480;48.920;12.880;2023-07-20T00:36:52;96749.22;;;21.37;43.43
78206;BME280;67480;48.920;12.880;2023-07-20T00:39:18;96746.88;;;21.46;43.60
78206;BME280;67480;48.920;12.880;2023-07-20T00:41:43;96753.53;;;21.45;43.67
78206;BME280;67480;48.920;12.880;2023-07-20T00:44:08;96748.44;;;21.43;44.15
78206;BME280;67480;48.920;12.880;2023-07-20T00:46:34;96747.28;;;21.41;44.34
78206;BME280;67480;48.920;12.880;2023-07-20T00:49:00;96750.75;;;21.30;44.76
78206;BME280;67480;48.920;12.880;2023-07-20T00:51:26;96752.69;;;21.12;44.89
78206;BME280;67480;48.920;12.880;2023-07-20T00:53:52;96745.66;;;21.22;44.91
78206;BME280;67480;48.920;12.880;2023-07-20T00:56:18;96746.47;;;21.29;44.23
78206;BME280;67480;48.920;12.880;2023-07-20T00:58:44;96747.22;;;21.30;44.10
78206;BME280;67480;48.920;12.880;2023-07-20T01:01:10;96748.78;;;21.27;44.04
78206;BME280;67480;48.920;12.880;2023-07-20T01:03:36;96753.47;;;21.27;43.52
78206;BME280;67480;48.920;12.880;2023-07-20T01:06:49;96755.84;;;21.21;43.99
78206;BME280;67480;48.920;12.880;2023-07-20T01:09:19;96751.53;;;21.17;44.07
78206;BME280;67480;48.920;12.880;2023-07-20T01:11:57;96749.56;;;21.10;44.48
78206;BME280;67480;48.920;12.880;2023-07-20T01:14:25;96754.22;;;21.06;44.28
78206;BME280;67480;48.920;12.880;2023-07-20T01:16:51;96744.06;;;21.03;44.67
78206;BME280;67480;48.920;12.880;2023-07-20T01:19:19;96738.59;;;20.96;45.10
78206;BME280;67480;48.920;12.880;2023-07-20T01:21:56;96739.75;;;20.84;45.37
78206;BME280;67480;48.920;12.880;2023-07-20T01:32:48;96736.97;;;20.80;45.90
78206;BME280;67480;48.920;12.880;2023-07-20T01:35:15;96738.03;;;20.54;45.98
78206;BME280;67480;48.920;12.880;2023-07-20T01:37:46;96738.03;;;20.54;45.98
78206;BME280;67480;48.920;12.880;2023-07-20T01:40:13;96726.94;;;20.14;47.50
78206;BME280;67480;48.920;12.880;2023-07-20T01:42:43;96738.13;;;19.95;47.70
78206;BME280;67480;48.920;12.880;2023-07-20T01:45:10;96732.66;;;19.91;47.51
78206;BME280;67480;48.920;12.880;2023-07-20T01:47:35;96746.72;;;19.97;47.15
78206;BME280;67480;48.920;12.880;2023-07-20T01:50:01;96737.78;;;20.04;46.95
78206;BME280;67480;48.920;12.880;2023-07-20T01:52:26;96746.38;;;20.02;47.14
78206;BME280;67480;48.920;12.880;2023-07-20T01:54:51;96743.97;;;19.93;47.41
78206;BME280;67480;48.920;12.880;2023-07-20T01:57:17;96754.81;;;19.79;47.71
78206;BME280;67480;48.920;12.880;2023-07-20T01:59:42;96750.38;;;19.60;48.06
78206;BME280;67480;48.920;12.880;2023-07-20T02:02:08;96744.84;;;19.56;48.02
78206;BME280;67480;48.920;12.880;2023-07-20T02:04:33;96751.03;;;19.50;48.46
78206;BME280;67480;48.920;12.880;2023-07-20T02:06:59;96749.00;;;19.36;48.50
78206;BME280;67480;48.920;12.880;2023-07-20T02:09:24;96755.50;;;19.24;48.91
78206;BME280;67480;48.920;12.880;2023-07-20T02:11:50;96748.31;;;19.05;49.30
78206;BME280;67480;48.920;12.880;2023-07-20T02:14:15;96749.84;;;19.02;49.50
78206;BME280;67480;48.920;12.880;2023-07-20T02:16:40;96755.94;;;18.92;49.62
78206;BME280;67480;48.920;12.880;2023-07-20T02:19:06;96753.81;;;18.74;50.26
78206;BME280;67480;48.920;12.880;2023-07-20T02:21:32;96754.84;;;18.97;49.51
78206;BME280;67480;48.920;12.880;2023-07-20T02:23:58;96751.66;;;18.91;49.74
78206;BME280;67480;48.920;12.880;2023-07-20T02:26:23;96755.66;;;19.01;49.41
78206;BME280;67480;48.920;12.880;2023-07-20T02:28:48;96746.19;;;18.91;49.88
78206;BME280;67480;48.920;12.880;2023-07-20T02:31:14;96750.69;;;19.06;49.32
78206;BME280;67480;48.920;12.880;2023-07-20T02:33:39;96751.44;;;19.07;49.26
78206;BME280;67480;48.920;12.880;2023-07-20T02:36:04;96746.78;;;19.07;49.58
78206;BME280;67480;48.920;12.880;2023-07-20T02:38:30;96750.22;;;19.01;49.57
78206;BME280;67480;48.920;12.880;2023-07-20T02:40:55;96736.69;;;18.74;50.27
78206;BME280;67480;48.920;12.880;2023-07-20T02:43:21;96748.75;;;18.77;50.40
78206;BME280;67480;48.920;12.880;2023-07-20T02:45:46;96750.81;;;18.83;50.32
78206;BME280;67480;48.920;12.880;2023-07-20T02:48:11;96752.00;;;18.89;49.82
78206;BME280;67480;48.920;12.880;2023-07-20T02:50:37;96752.00;;;18.89;49.80
78206;BME280;67480;48.920;12.880;2023-07-20T02:53:02;96753.44;;;18.76;50.14
78206;BME280;67480;48.920;12.880;2023-07-20T02:55:28;96756.81;;;18.62;50.63
78206;BME280;67480;48.920;12.880;2023-07-20T02:57:53;96764.63;;;18.67;50.31
78206;BME280;67480;48.920;12.880;2023-07-20T03:00:18;96764.81;;;18.82;50.29
78206;BME280;67480;48.920;12.880;2023-07-20T03:02:48;96771.44;;;18.84;50.04
78206;BME280;67480;48.920;12.880;2023-07-20T03:05:14;96776.91;;;18.84;50.08
78206;BME280;67480;48.920;12.880;2023-07-20T03:07:39;96770.53;;;18.73;50.22
78206;BME280;67480;48.920;12.880;2023-07-20T03:10:06;96776.03;;;18.77;50.11
78206;BME280;67480;48.920;12.880;2023-07-20T03:12:35;96772.53;;;18.76;50.00
78206;BME280;67480;48.920;12.880;2023-07-20T03:15:02;96771.06;;;18.52;50.87
78206;BME280;67480;48.920;12.880;2023-07-20T03:17:27;96781.22;;;18.55;51.23
78206;BME280;67480;48.920;12.880;2023-07-20T03:19:53;96783.75;;;18.41;51.35
78206;BME280;67480;48.920;12.880;2023-07-20T03:22:18;96779.16;;;18.45;51.30
78206;BME280;67480;48.920;12.880;2023-07-20T03:24:44;96777.31;;;18.22;51.93
78206;BME280;67480;48.920;12.880;2023-07-20T03:27:09;96787.09;;;18.57;50.73
78206;BME280;67480;48.920;12.880;2023-07-20T03:29:34;96788.16;;;18.49;51.16
78206;BME280;67480;48.920;12.880;2023-07-20T03:32:00;96786.72;;;18.59;51.02
78206;BME280;67480;48.920;12.880;2023-07-20T03:34:26;96793.44;;;18.68;50.79
78206;BME280;67480;48.920;12.880;2023-07-20T03:36:52;96803.25;;;18.73;50.65
78206;BME280;67480;48.920;12.880;2023-07-20T03:39:18;96801.38;;;18.47;51.61
78206;BME280;67480;48.920;12.880;2023-07-20T03:41:46;96806.47;;;18.52;51.34
78206;BME280;67480;48.920;12.880;2023-07-20T03:44:32;96794.13;;;18.58;51.79
78206;BME280;67480;48.920;12.880;2023-07-20T03:46:58;96791.75;;;18.56;51.79
78206;BME280;67480;48.920;12.880;2023-07-20T03:49:23;96799.41;;;18.78;51.07
78206;BME280;67480;48.920;12.880;2023-07-20T03:51:49;96793.34;;;18.91;50.86
78206;BME280;67480;48.920;12.880;2023-07-20T03:54:14;96794.50;;;18.90;50.50
78206;BME280;67480;48.920;12.880;2023-07-20T03:56:40;96795.47;;;19.05;50.56
78206;BME280;67480;48.920;12.880;2023-07-20T03:59:05;96793.06;;;19.00;50.92
78206;BME280;67480;48.920;12.880;2023-07-20T04:01:30;96795.84;;;19.04;50.69
78206;BME280;67480;48.920;12.880;2023-07-20T04:04:06;96801.00;;;18.79;51.40
78206;BME280;67480;48.920;12.880;2023-07-20T04:06:32;96797.44;;;18.44;51.46
78206;BME280;67480;48.920;12.880;2023-07-20T04:08:57;96796.66;;;18.44;51.87
78206;BME280;67480;48.920;12.880;2023-07-20T04:11:26;96801.00;;;18.79;51.48
78206;BME280;67480;48.920;12.880;2023-07-20T04:13:52;96800.72;;;18.91;51.13
78206;BME280;67480;48.920;12.880;2023-07-20T04:16:17;96807.84;;;18.99;51.47
78206;BME280;67480;48.920;12.880;2023-07-20T04:18:42;96805.06;;;18.96;51.12
78206;BME280;67480;48.920;12.880;2023-07-20T04:21:08;96809.25;;;19.20;50.69
78206;BME280;67480;48.920;12.880;2023-07-20T04:23:34;96811.69;;;19.32;50.59
78206;BME280;67480;48.920;12.880;2023-07-20T04:26:00;96816.84;;;19.37;50.41
78206;BME280;67480;48.920;12.880;2023-07-20T04:28:26;96816.19;;;19.55;49.93
78206;BME280;67480;48.920;12.880;2023-07-20T04:30:52;96816.19;;;19.55;50.34
78206;BME280;67480;48.920;12.880;2023-07-20T04:33:18;96823.25;;;19.59;50.88
78206;BME280;67480;48.920;12.880;2023-07-20T04:38:13;96824.88;;;19.64;50.92
78206;BME280;67480;48.920;12.880;2023-07-20T04:40:46;96821.28;;;19.56;50.66
78206;BME280;67480;48.920;12.880;2023-07-20T04:43:13;96825.91;;;19.49;51.84
78206;BME280;67480;48.920;12.880;2023-07-20T04:45:38;96825.84;;;19.45;52.15
78206;BME280;67480;48.920;12.880;2023-07-20T04:48:10;96819.78;;;19.62;50.79
78206;BME280;67480;48.920;12.880;2023-07-20T04:50:37;96821.06;;;19.76;51.32
78206;BME280;67480;48.920;12.880;2023-07-20T04:53:02;96811.72;;;19.77;50.67
78206;BME280;67480;48.920;12.880;2023-07-20T04:55:28;96829.94;;;19.65;51.82
78206;BME280;67480;48.920;12.880;2023-07-20T04:57:53;96826.19;;;19.81;51.02
78206;BME280;67480;48.920;12.880;2023-07-20T05:00:19;96824.66;;;19.80;50.57
78206;BME280;67480;48.920;12.880;2023-07-20T05:02:45;96833.75;;;19.98;50.53
78206;BME280;67480;48.920;12.880;2023-07-20T05:05:12;96828.78;;;20.11;50.23
78206;BME280;67480;48.920;12.880;2023-07-20T05:07:38;96836.47;;;19.98;50.63
78206;BME280;67480;48.920;12.880;2023-07-20T05:10:04;96841.44;;;19.86;51.14
78206;BME280;67480;48.920;12.880;2023-07-20T05:12:29;96839.34;;;19.68;51.52
78206;BME280;67480;48.920;12.880;2023-07-20T05:14:55;96836.56;;;20.06;50.87
78206;BME280;67480;48.920;12.880;2023-07-20T05:17:20;96839.09;;;19.84;51.71
78206;BME280;67480;48.920;12.880;2023-07-20T05:19:45;96840.25;;;19.79;52.56
78206;BME280;67480;48.920;12.880;2023-07-20T05:22:13;96840.25;;;19.79;52.53
78206;BME280;67480;48.920;12.880;2023-07-20T05:24:38;96834.00;;;19.79;52.25
78206;BME280;67480;48.920;12.880;2023-07-20T05:27:04;96844.81;;;19.68;52.95
78206;BME280;67480;48.920;12.880;2023-07-20T05:29:30;96842.97;;;19.79;52.78
78206;BME280;67480;48.920;12.880;2023-07-20T05:31:55;96840.25;;;19.79;52.79
78206;BME280;67480;48.920;12.880;2023-07-20T05:34:20;96843.06;;;19.90;52.22
78206;BME280;67480;48.920;12.880;2023-07-20T05:36:46;96843.28;;;19.74;53.37
78206;BME280;67480;48.920;12.880;2023-07-20T05:39:11;96842.44;;;19.67;52.80
78206;BME280;67480;48.920;12.880;2023-07-20T05:41:36;96846.13;;;19.85;52.97
78206;BME280;67480;48.920;12.880;2023-07-20T05:44:02;96846.31;;;19.62;53.08
78206;BME280;67480;48.920;12.880;2023-07-20T05:46:27;96843.66;;;19.73;53.20
78206;BME280;67480;48.920;12.880;2023-07-20T05:48:52;96847.56;;;19.72;52.78
78206;BME280;67480;48.920;12.880;2023-07-20T05:51:18;96845.22;;;19.70;52.97
78206;BME280;67480;48.920;12.880;2023-07-20T05:53:44;96853.69;;;19.99;52.95
78206;BME280;67480;48.920;12.880;2023-07-20T05:56:09;96841.91;;;19.95;52.40
78206;BME280;67480;48.920;12.880;2023-07-20T05:58:36;96852.81;;;19.88;52.77
78206;BME280;67480;48.920;12.880;2023-07-20T06:01:01;96850.22;;;20.09;51.52
78206;BME280;67480;48.920;12.880;2023-07-20T06:03:27;96852.44;;;19.89;51.79
78206;BME280;67480;48.920;12.880;2023-07-20T06:05:58;96852.13;;;19.60;52.23
78206;BME280;67480;48.920;12.880;2023-07-20T06:08:25;96857.97;;;20.00;51.50
78206;BME280;67480;48.920;12.880;2023-07-20T06:10:59;96857.41;;;19.80;51.49
78206;BME280;67480;48.920;12.880;2023-07-20T06:13:24;96858.66;;;19.90;51.88
78206;BME280;67480;48.920;12.880;2023-07-20T06:15:57;96861.41;;;19.93;51.72
78206;BME280;67480;48.920;12.880;2023-07-20T06:18:25;96865.13;;;20.19;50.98
78206;BME280;67480;48.920;12.880;2023-07-20T06:20:51;96869.41;;;20.16;51.33
78206;BME280;67480;48.920;12.880;2023-07-20T06:23:21;96864.13;;;20.45;51.15
78206;BME280;67480;48.920;12.880;2023-07-20T06:25:47;96864.53;;;20.51;49.76
78206;BME280;67480;48.920;12.880;2023-07-20T06:28:13;96864.16;;;20.49;49.99
78206;BME280;67480;48.920;12.880;2023-07-20T06:30:38;96864.03;;;20.31;50.18
78206;BME280;67480;48.920;12.880;2023-07-20T06:33:04;96863.00;;;20.50;49.73
78206;BME280;67480;48.920;12.880;2023-07-20T06:35:29;96871.63;;;20.04;50.94
78206;BME280;67480;48.920;12.880;2023-07-20T06:37:54;96872.88;;;20.13;51.19
78206;BME280;67480;48.920;12.880;2023-07-20T06:40:21;96869.91;;;20.33;50.58
78206;BME280;67480;48.920;12.880;2023-07-20T06:42:46;96864.72;;;20.72;49.31
78206;BME280;67480;48.920;12.880;2023-07-20T06:45:12;96869.53;;;21.08;49.53
78206;BME280;67480;48.920;12.880;2023-07-20T06:47:38;96877.22;;;20.77;50.16
78206;BME280;67480;48.920;12.880;2023-07-20T06:50:06;96878.03;;;20.81;50.12
78206;BME280;67480;48.920;12.880;2023-07-20T06:52:31;96878.09;;;20.33;50.07
78206;BME280;67480;48.920;12.880;2023-07-20T06:54:57;96878.25;;;19.99;50.99
78206;BME280;67480;48.920;12.880;2023-07-20T06:57:22;96888.22;;;19.80;51.31
78206;BME280;67480;48.920;12.880;2023-07-20T06:59:48;96881.13;;;20.17;51.25
78206;BME280;67480;48.920;12.880;2023-07-20T07:02:13;96867.13;;;20.26;50.78
78206;BME280;67480;48.920;12.880;2023-07-20T07:04:39;96866.34;;;20.88;49.70
78206;BME280;67480;48.920;12.880;2023-07-20T07:07:04;96871.25;;;21.48;48.49
78206;BME280;67480;48.920;12.880;2023-07-20T07:09:30;96868.94;;;21.83;47.55
78206;BME280;67480;48.920;12.880;2023-07-20T07:11:55;96865.81;;;22.02;46.67
78206;BME280;67480;48.920;12.880;2023-07-20T07:14:21;96866.59;;;21.78;46.74
78206;BME280;67480;48.920;12.880;2023-07-20T07:16:47;96872.06;;;21.96;46.28
78206;BME280;67480;48.920;12.880;2023-07-20T07:19:13;96864.28;;;22.19;45.84
78206;BME280;67480;48.920;12.880;2023-07-20T07:21:38;96867.78;;;22.34;45.30
78206;BME280;67480;48.920;12.880;2023-07-20T07:24:05;96869.72;;;22.48;45.32
78206;BME280;67480;48.920;12.880;2023-07-20T07:26:32;96876.78;;;22.35;45.66
78206;BME280;67480;48.920;12.880;2023-07-20T07:28:58;96874.41;;;21.76;46.45
78206;BME280;67480;48.920;12.880;2023-07-20T07:31:25;96879.94;;;22.05;46.19
78206;BME280;67480;48.920;12.880;2023-07-20T07:33:50;96870.13;;;21.86;46.51
78206;BME280;67480;48.920;12.880;2023-07-20T07:36:16;96882.09;;;21.23;47.60
78206;BME280;67480;48.920;12.880;2023-07-20T07:38:41;96882.25;;;20.68;49.12
78206;BME280;67480;48.920;12.880;2023-07-20T07:41:07;96874.63;;;21.06;48.56
78206;BME280;67480;48.920;12.880;2023-07-20T07:43:33;96874.59;;;20.99;48.41
78206;BME280;67480;48.920;12.880;2023-07-20T07:45:58;96871.94;;;21.17;48.53
78206;BME280;67480;48.920;12.880;2023-07-20T07:48:24;96875.22;;;21.80;47.43
78206;BME280;67480;48.920;12.880;2023-07-20T07:50:50;96881.09;;;21.82;47.17
78206;BME280;67480;48.920;12.880;2023-07-20T07:53:16;96881.06;;;21.68;46.95
78206;BME280;67480;48.920;12.880;2023-07-20T07:55:41;96877.16;;;22.44;45.57
78206;BME280;67480;48.920;12.880;2023-07-20T07:58:07;96882.28;;;21.92;45.84
78206;BME280;67480;48.920;12.880;2023-07-20T08:00:32;96876.81;;;22.24;45.46
78206;BME280;67480;48.920;12.880;2023-07-20T08:02:57;96883.47;;;22.34;44.68
78206;BME280;67480;48.920;12.880;2023-07-20T08:05:23;96886.19;;;22.34;45.09
78206;BME280;67480;48.920;12.880;2023-07-20T08:07:49;96891.13;;;21.31;47.01
78206;BME280;67480;48.920;12.880;2023-07-20T08:10:14;96885.25;;;21.29;47.70
78206;BME280;67480;48.920;12.880;2023-07-20T08:12:40;96885.34;;;21.58;46.27
78206;BME280;67480;48.920;12.880;2023-07-20T08:15:05;96895.81;;;21.30;47.49
78206;BME280;67480;48.920;12.880;2023-07-20T08:17:31;96904.22;;;22.10;46.58
78206;BME280;67480;48.920;12.880;2023-07-20T08:19:56;96896.59;;;23.15;44.92
78206;BME280;67480;48.920;12.880;2023-07-20T08:22:22;96900.13;;;23.89;42.33
78206;BME280;67480;48.920;12.880;2023-07-20T08:24:47;96908.13;;;23.69;41.51
78206;BME280;67480;48.920;12.880;2023-07-20T08:27:13;96911.75;;;23.52;41.89
78206;BME280;67480;48.920;12.880;2023-07-20T08:29:38;96902.44;;;23.17;42.38
78206;BME280;67480;48.920;12.880;2023-07-20T08:32:04;96904.75;;;23.29;40.93
78206;BME280;67480;48.920;12.880;2023-07-20T08:34:30;96907.44;;;24.10;39.44
78206;BME280;67480;48.920;12.880;2023-07-20T08:36:57;96904.59;;;24.25;39.15
78206;BME280;67480;48.920;12.880;2023-07-20T08:39:23;96907.41;;;23.54;39.78
78206;BME280;67480;48.920;12.880;2023-07-20T08:41:49;96901.47;;;23.63;38.82
78206;BME280;67480;48.920;12.880;2023-07-20T08:44:14;96909.03;;;24.04;39.14
78206;BME280;67480;48.920;12.880;2023-07-20T08:46:40;96908.44;;;24.31;38.56
78206;BME280;67480;48.920;12.880;2023-07-20T08:49:06;96909.94;;;23.87;37.58
78206;BME280;67480;48.920;12.880;2023-07-20T08:51:32;96912.19;;;23.36;38.80
78206;BME280;67480;48.920;12.880;2023-07-20T08:53:59;96903.66;;;23.16;38.64
78206;BME280;67480;48.920;12.880;2023-07-20T08:56:25;96909.19;;;23.82;38.76
78206;BME280;67480;48.920;12.880;2023-07-20T08:58:54;96911.28;;;24.24;37.89
78206;BME280;67480;48.920;12.880;2023-07-20T09:01:21;96913.91;;;24.76;37.07
78206;BME280;67480;48.920;12.880;2023-07-20T09:03:47;96915.81;;;25.21;36.35
78206;BME280;67480;48.920;12.880;2023-07-20T09:06:14;96917.72;;;26.13;34.27
78206;BME280;67480;48.920;12.880;2023-07-20T09:08:40;96919.50;;;25.07;34.03
78206;BME280;67480;48.920;12.880;2023-07-20T09:11:06;96915.59;;;24.25;35.56
78206;BME280;67480;48.920;12.880;2023-07-20T09:13:33;96911.75;;;24.98;35.28
78206;BME280;67480;48.920;12.880;2023-07-20T09:15:59;96924.50;;;25.81;33.65
78206;BME280;67480;48.920;12.880;2023-07-20T09:18:29;96908.78;;;26.52;32.17
78206;BME280;67480;48.920;12.880;2023-07-20T09:21:02;96910.06;;;26.71;31.85
78206;BME280;67480;48.920;12.880;2023-07-20T09:23:35;96911.91;;;27.95;30.33
78206;BME280;67480;48.920;12.880;2023-07-20T09:26:11;96911.91;;;28.28;30.05
78206;BME280;67480;48.920;12.880;2023-07-20T09:28:48;96915.81;;;29.35;28.24
78206;BME280;67480;48.920;12.880;2023-07-20T09:31:18;96909.63;;;28.39;29.03
78206;BME280;67480;48.920;12.880;2023-07-20T09:33:45;96905.94;;;27.96;29.19
78206;BME280;67480;48.920;12.880;2023-07-20T09:36:10;96913.72;;;27.65;29.32
78206;BME280;67480;48.920;12.880;2023-07-20T09:38:41;96910.56;;;28.65;28.66
78206;BME280;67480;48.920;12.880;2023-07-20T09:41:14;96901.56;;;30.61;26.74
78206;BME280;67480;48.920;12.880;2023-07-20T09:43:43;96905.63;;;30.47;24.55
78206;BME280;67480;48.920;12.880;2023-07-20T09:46:10;96903.91;;;30.98;24.41
78206;BME280;67480;48.920;12.880;2023-07-20T09:48:35;96900.81;;;31.80;23.80
78206;BME280;67480;48.920;12.880;2023-07-20T09:51:01;96902.41;;;32.31;22.94
78206;BME280;67480;48.920;12.880;2023-07-20T09:53:27;96905.47;;;33.44;22.15
78206;BME280;67480;48.920;12.880;2023-07-20T09:55:54;96904.94;;;32.76;22.12
78206;BME280;67480;48.920;12.880;2023-07-20T09:58:21;96904.94;;;33.74;21.80
78206;BME280;67480;48.920;12.880;2023-07-20T10:00:48;96902.31;;;34.04;20.56
78206;BME280;67480;48.920;12.880;2023-07-20T10:03:19;96894.38;;;32.70;21.47
78206;BME280;67480;48.920;12.880;2023-07-20T10:06:06;96892.88;;;30.72;23.49
78206;BME280;67480;48.920;12.880;2023-07-20T10:08:38;96898.16;;;29.16;25.49
78206;BME280;67480;48.920;12.880;2023-07-20T10:11:08;96895.84;;;28.68;25.63
78206;BME280;67480;48.920;12.880;2023-07-20T10:13:38;96893.47;;;28.54;25.97
78206;BME280;67480;48.920;12.880;2023-07-20T10:16:10;96902.03;;;30.47;23.76
78206;BME280;67480;48.920;12.880;2023-07-20T10:18:54;96896.47;;;30.95;23.23
78206;BME280;67480;48.920;12.880;2023-07-20T10:21:24;96905.50;;;33.35;21.10
78206;BME280;67480;48.920;12.880;2023-07-20T10:23:50;96893.44;;;33.29;21.67
78206;BME280;67480;48.920;12.880;2023-07-20T10:26:16;96892.25;;;31.65;21.44
78206;BME280;67480;48.920;12.880;2023-07-20T10:28:42;96899.09;;;30.28;22.33
78206;BME280;67480;48.920;12.880;2023-07-20T10:31:08;96890.81;;;31.61;20.95
78206;BME280;67480;48.920;12.880;2023-07-20T10:33:36;96910.31;;;32.98;20.00
78206;BME280;67480;48.920;12.880;2023-07-20T10:36:03;96889.25;;;32.41;19.83
78206;BME280;67480;48.920;12.880;2023-07-20T10:43:46;96877.53;;;31.96;19.43
78206;BME280;67480;48.920;12.880;2023-07-20T10:46:12;96902.91;;;34.08;17.90
78206;BME280;67480;48.920;12.880;2023-07-20T10:49:03;96911.59;;;32.97;18.61
78206;BME280;67480;48.920;12.880;2023-07-20T10:51:30;96907.69;;;32.85;19.22
78206;BME280;67480;48.920;12.880;2023-07-20T10:54:01;96894.50;;;31.26;20.31
78206;BME280;67480;48.920;12.880;2023-07-20T10:56:27;96892.72;;;31.95;20.24
78206;BME280;67480;48.920;12.880;2023-07-20T10:59:00;96870.34;;;30.70;21.50
78206;BME280;67480;48.920;12.880;2023-07-20T11:01:30;96873.38;;;31.07;20.83
78206;BME280;67480;48.920;12.880;2023-07-20T11:03:59;96882.50;;;29.64;21.19
78206;BME280;67480;48.920;12.880;2023-07-20T11:06:31;96884.22;;;32.17;19.44
78206;BME280;67480;48.920;12.880;2023-07-20T11:09:10;96897.25;;;34.26;17.94
78206;BME280;67480;48.920;12.880;2023-07-20T11:11:40;96894.78;;;34.19;17.61
78206;BME280;67480;48.920;12.880;2023-07-20T11:14:25;96875.56;;;34.45;18.32
78206;BME280;67480;48.920;12.880;2023-07-20T11:16:51;96874.53;;;33.76;18.13
78206;BME280;67480;48.920;12.880;2023-07-20T11:19:18;96888.38;;;34.76;17.55
78206;BME280;67480;48.920;12.880;2023-07-20T11:21:46;96883.69;;;34.97;17.05
78206;BME280;67480;48.920;12.880;2023-07-20T11:24:12;96886.81;;;34.03;16.04
78206;BME280;67480;48.920;12.880;2023-07-20T11:26:41;96870.84;;;32.99;16.57
78206;BME280;67480;48.920;12.880;2023-07-20T11:29:07;96881.19;;;34.36;16.13
78206;BME280;67480;48.920;12.880;2023-07-20T11:31:35;96877.56;;;34.84;15.00
78206;BME280;67480;48.920;12.880;2023-07-20T11:34:01;96873.41;;;36.81;14.62
78206;BME280;67480;48.920;12.880;2023-07-20T11:36:26;96876.28;;;37.71;13.20
78206;BME280;67480;48.920;12.880;2023-07-20T11:38:52;96881.56;;;37.31;13.82
78206;BME280;67480;48.920;12.880;2023-07-20T11:41:17;96868.28;;;37.90;13.62
78206;BME280;67480;48.920;12.880;2023-07-20T11:43:45;96880.50;;;38.90;12.81
78206;BME280;67480;48.920;12.880;2023-07-20T11:46:10;96861.59;;;36.71;13.77
78206;BME280;67480;48.920;12.880;2023-07-20T11:48:36;96861.84;;;38.32;13.23
78206;BME280;67480;48.920;12.880;2023-07-20T11:51:01;96848.78;;;35.88;15.04
78206;BME280;67480;48.920;12.880;2023-07-20T11:53:27;96856.56;;;35.63;14.89
78206;BME280;67480;48.920;12.880;2023-07-20T11:55:53;96854.63;;;37.13;14.33
78206;BME280;67480;48.920;12.880;2023-07-20T11:58:18;96849.66;;;38.47;13.46
78206;BME280;67480;48.920;12.880;2023-07-20T12:00:44;96850.00;;;37.10;14.21
78206;BME280;67480;48.920;12.880;2023-07-20T12:03:10;96854.78;;;35.30;14.71
78206;BME280;67480;48.920;12.880;2023-07-20T12:05:40;96837.94;;;36.78;14.40
78206;BME280;67480;48.920;12.880;2023-07-20T12:08:06;96836.66;;;36.32;15.25
78206;BME280;67480;48.920;12.880;2023-07-20T12:10:32;96825.38;;;36.47;14.83
78206;BME280;67480;48.920;12.880;2023-07-20T12:13:02;96837.75;;;36.81;15.87
78206;BME280;67480;48.920;12.880;2023-07-20T12:15:30;96825.00;;;35.77;15.65
78206;BME280;67480;48.920;12.880;2023-07-20T12:17:59;96827.50;;;32.89;17.50
78206;BME280;67480;48.920;12.880;2023-07-20T12:20:45;96814.97;;;32.47;17.75
78206;BME280;67480;48.920;12.880;2023-07-20T12:23:12;96826.69;;;34.41;16.28
78206;BME280;67480;48.920;12.880;2023-07-20T12:25:44;96813.63;;;34.47;16.27
78206;BME280;67480;48.920;12.880;2023-07-20T12:28:12;96826.94;;;34.67;15.49
78206;BME280;67480;48.920;12.880;2023-07-20T12:30:43;96812.34;;;35.32;15.67
78206;BME280;67480;48.920;12.880;2023-07-20T12:33:12;96822.41;;;36.77;15.04
78206;BME280;67480;48.920;12.880;2023-07-20T12:35:40;96807.88;;;36.52;15.44
78206;BME280;67480;48.920;12.880;2023-07-20T12:38:06;96828.59;;;34.34;15.92
78206;BME280;67480;48.920;12.880;2023-07-20T12:40:31;96802.50;;;34.77;15.24
78206;BME280;67480;48.920;12.880;2023-07-20T12:42:57;96810.03;;;35.80;15.60
78206;BME280;67480;48.920;12.880;2023-07-20T12:45:23;96788.88;;;34.69;15.60
78206;BME280;67480;48.920;12.880;2023-07-20T12:47:49;96795.34;;;35.35;16.13
78206;BME280;67480;48.920;12.880;2023-07-20T12:50:14;96800.09;;;34.84;15.78
78206;BME280;67480;48.920;12.880;2023-07-20T12:52:40;96797.88;;;35.33;15.57
78206;BME280;67480;48.920;12.880;2023-07-20T12:55:07;96800.16;;;35.05;15.79
78206;BME280;67480;48.920;12.880;2023-07-20T12:57:37;96796.91;;;34.13;16.00
78206;BME280;67480;48.920;12.880;2023-07-20T13:00:04;96782.81;;;32.37;17.73
78206;BME280;67480;48.920;12.880;2023-07-20T13:02:30;96796.28;;;32.48;17.72
78206;BME280;67480;48.920;12.880;2023-07-20T13:04:56;96787.81;;;31.74;18.52